LGKV/KVA METAR and TAF weather

Enter ICAO airport designator
Station Type Date Time Source
LGKV METAR 2019/05/23 18:50 UTC NOAA

LGKV 231850Z 27009KT 9999 FEW020TCU SCT030 21/14 Q1009


Station Type Date Time Source
LGKV Decoded METAR 2019/05/23 18:50 UTC NOAA

Chrysoupoli Airport , Greece (LGKV) 40-59N 024-36E 5M
May 23, 2019 - 02:50 PM EDT / 2019.05.23 1850 UTC
Wind: from the W (270 degrees) at 10 MPH (9 KT):0
Visibility: greater than 7 mile(s):0
Sky conditions: partly cloudy
Weather: Towering cumulus clouds observed
Temperature: 69 F (21 C)
Dew Point: 57 F (14 C)
Relative Humidity: 64%
Pressure (altimeter): 29.80 in. Hg (1009 hPa)
ob: LGKV 231850Z 27009KT 9999 FEW020TCU SCT030 21/14 Q1009
cycle: 19

Station Type Date Time Source
LGKV TAF 2019/05/23 18:12 UTC NOAA

TAF LGKV 231700Z 2318/2418 VRB03KT 9999 SCT025 BKN080 PROB40
TEMPO 2321/2412 5000 TSRA FEW016CB BKN020 BKN070
BECMG 2412/2414 21010KT FEW025 SCT080

Example: see airport list